createdAt,value
2019-03-02T00:00:42.476Z,6.61
2019-03-02T00:03:14.256Z,6.62
2019-03-02T00:05:46.287Z,6.62
2019-03-02T00:08:18.133Z,6.58
2019-03-02T00:10:49.976Z,6.57
2019-03-02T00:13:21.823Z,6.57
2019-03-02T00:15:53.697Z,6.57
2019-03-02T00:18:25.904Z,6.61
2019-03-02T00:20:59.133Z,6.61
2019-03-02T00:23:31.083Z,6.58
2019-03-02T00:26:06.240Z,6.57
2019-03-02T00:28:36.537Z,6.58
2019-03-02T00:31:08.393Z,6.57
2019-03-02T00:33:40.287Z,6.58
2019-03-02T00:36:12.145Z,6.59
2019-03-02T00:38:44.370Z,6.59
2019-03-02T00:41:16.249Z,6.61
2019-03-02T00:43:48.772Z,6.61
2019-03-02T00:46:20.771Z,6.62
2019-03-02T00:48:54.576Z,6.61
2019-03-02T00:51:26.526Z,6.61
2019-03-02T00:53:58.355Z,6.61
2019-03-02T00:56:30.228Z,6.64
2019-03-02T00:59:04.104Z,6.60
2019-03-02T01:01:36.676Z,6.57
2019-03-02T01:04:08.541Z,6.57
2019-03-02T01:06:40.400Z,6.56
2019-03-02T01:09:13.087Z,6.53
2019-03-02T01:11:44.974Z,6.51
2019-03-02T01:14:16.861Z,6.50
2019-03-02T01:16:51.727Z,6.48
2019-03-02T01:19:22.284Z,6.50
2019-03-02T01:21:54.189Z,6.48
2019-03-02T01:24:26.052Z,6.50
2019-03-02T01:26:59.413Z,6.49
2019-03-02T01:29:31.506Z,6.46
2019-03-02T01:32:03.376Z,6.50
2019-03-02T01:34:35.223Z,6.50
2019-03-02T01:37:08.164Z,6.47
2019-03-02T01:39:40.724Z,6.46
2019-03-02T01:42:12.585Z,6.42
2019-03-02T01:44:44.477Z,6.44
2019-03-02T01:47:17.040Z,6.43
2019-03-02T01:49:48.977Z,6.40
2019-03-02T01:52:20.820Z,6.38
2019-03-02T01:54:55.756Z,6.36
2019-03-02T01:57:26.946Z,6.37
2019-03-02T01:59:58.766Z,6.35
2019-03-02T02:02:32.685Z,6.33
2019-03-02T02:05:04.367Z,6.32
2019-03-02T02:07:36.632Z,6.33
2019-03-02T02:10:11.991Z,6.34
2019-03-02T02:12:44.269Z,6.34
2019-03-02T02:15:18.859Z,6.35
2019-03-02T02:17:53.055Z,6.34
2019-03-02T02:20:24.329Z,6.35
2019-03-02T02:22:56.185Z,6.36
2019-03-02T02:25:28.053Z,6.34
2019-03-02T02:27:59.947Z,6.34
2019-03-02T02:30:31.902Z,6.32
2019-03-02T02:33:05.802Z,6.35
2019-03-02T02:35:40.302Z,6.30
2019-03-02T02:38:15.529Z,6.31
2019-03-02T02:40:44.586Z,6.37
2019-03-02T02:43:20.857Z,6.32
2019-03-02T02:45:53.634Z,6.29
2019-03-02T02:48:26.293Z,6.37
2019-03-02T02:50:57.357Z,6.36
2019-03-02T02:53:29.236Z,6.38
2019-03-02T02:56:01.065Z,6.31
2019-03-02T02:58:32.953Z,6.31
2019-03-02T03:01:04.825Z,6.24
2019-03-02T03:03:36.683Z,6.19
2019-03-02T03:06:08.574Z,6.23
2019-03-02T03:08:45.339Z,6.15
2019-03-02T03:11:18.708Z,6.04
2019-03-02T03:13:50.619Z,6.10
2019-03-02T03:16:22.466Z,6.15
2019-03-02T03:18:54.369Z,6.23
2019-03-02T03:21:28.130Z,6.12
2019-03-02T03:24:03.929Z,6.05
2019-03-02T03:26:35.286Z,6.04
2019-03-02T03:29:09.602Z,6.03
2019-03-02T03:31:40.531Z,6.00
2019-03-02T03:34:12.380Z,5.94
2019-03-02T03:36:44.244Z,6.00
2019-03-02T03:39:16.096Z,5.94
2019-03-02T03:41:47.947Z,6.02
2019-03-02T03:44:25.903Z,6.00
2019-03-02T03:46:56.140Z,6.18
2019-03-02T03:49:30.100Z,6.05
2019-03-02T03:52:04.042Z,6.03
2019-03-02T03:54:34.189Z,6.05
2019-03-02T03:57:06.065Z,6.06
2019-03-02T03:59:38.112Z,6.11
2019-03-02T04:02:09.980Z,6.08
2019-03-02T04:04:41.853Z,6.08
2019-03-02T04:07:13.667Z,6.07
2019-03-02T04:09:46.939Z,6.10
2019-03-02T04:12:19.886Z,6.10
2019-03-02T04:14:56.806Z,6.13
2019-03-02T04:17:26.319Z,6.15
2019-03-02T04:19:58.211Z,6.15
2019-03-02T04:22:30.140Z,6.23
2019-03-02T04:25:02.056Z,6.31
2019-03-02T04:27:33.964Z,6.28
2019-03-02T04:30:07.081Z,6.24
2019-03-02T04:32:38.995Z,6.20
2019-03-02T04:35:10.983Z,6.27
2019-03-02T04:37:42.848Z,6.14
2019-03-02T04:40:14.728Z,6.14
2019-03-02T04:42:50.062Z,6.24
2019-03-02T04:45:20.160Z,6.29
2019-03-02T04:47:52.051Z,6.14
2019-03-02T04:50:27.035Z,6.07
2019-03-02T04:52:57.461Z,6.05
2019-03-02T04:55:29.327Z,6.16
2019-03-02T04:58:01.260Z,6.14
2019-03-02T05:00:33.252Z,6.15
2019-03-02T05:03:05.129Z,6.10
2019-03-02T05:05:36.975Z,6.08
2019-03-02T05:08:08.909Z,6.11
2019-03-02T05:10:40.794Z,6.18
2019-03-02T05:13:12.769Z,6.24
2019-03-02T05:15:44.624Z,6.09
2019-03-02T05:18:18.117Z,6.22
2019-03-02T05:20:50.063Z,6.12
2019-03-02T05:23:21.919Z,6.04
2019-03-02T05:25:54.560Z,6.19
2019-03-02T05:28:39.709Z,6.04
2019-03-02T05:31:11.462Z,6.21
2019-03-02T05:33:43.295Z,6.01
2019-03-02T05:36:15.468Z,6.03
2019-03-02T05:38:47.326Z,5.94
2019-03-02T05:41:19.180Z,6.09
2019-03-02T05:43:51.011Z,6.04
2019-03-02T05:46:25.511Z,6.00
2019-03-02T05:48:56.475Z,6.10
2019-03-02T05:51:28.324Z,6.01
2019-03-02T05:54:02.679Z,6.00
2019-03-02T05:56:33.815Z,6.24
2019-03-02T05:59:05.683Z,6.09
2019-03-02T06:01:40.417Z,6.06
2019-03-02T06:04:11.184Z,6.02
2019-03-02T06:06:43.030Z,6.09
2019-03-02T06:09:14.928Z,6.19
2019-03-02T06:11:46.826Z,6.15
2019-03-02T06:14:18.692Z,6.24
2019-03-02T06:16:53.787Z,6.30
2019-03-02T06:19:24.352Z,6.15
2019-03-02T06:21:56.203Z,6.16
2019-03-02T06:24:28.085Z,6.25
2019-03-02T06:26:59.973Z,6.33
2019-03-02T06:29:32.757Z,6.32
2019-03-02T06:32:05.433Z,6.24
2019-03-02T06:34:37.667Z,6.17
2019-03-02T06:37:09.551Z,6.21
2019-03-02T06:39:44.463Z,6.33
2019-03-02T06:42:15.070Z,6.17
2019-03-02T06:44:46.957Z,6.19
2019-03-02T06:47:18.812Z,6.21
2019-03-02T06:49:53.146Z,6.17
2019-03-02T06:52:25.486Z,6.38
2019-03-02T06:54:58.053Z,6.42
2019-03-02T06:57:29.921Z,6.42
2019-03-02T07:00:01.815Z,6.32
2019-03-02T07:02:35.146Z,6.26
2019-03-02T07:05:07.893Z,6.15
2019-03-02T07:07:39.848Z,6.16
2019-03-02T07:10:17.852Z,6.14
2019-03-02T07:12:48.831Z,6.13
2019-03-02T07:15:20.658Z,6.15
2019-03-02T07:18:05.741Z,6.17
2019-03-02T07:20:36.034Z,6.16
2019-03-02T07:23:07.880Z,6.14
2019-03-02T07:25:40.847Z,6.13
2019-03-02T07:28:13.419Z,6.13
2019-03-02T07:30:45.341Z,6.19
2019-03-02T07:33:17.243Z,6.21
2019-03-02T07:35:51.738Z,6.21
2019-03-02T07:38:22.816Z,6.35
2019-03-02T07:40:54.828Z,6.35
2019-03-02T07:43:26.710Z,6.41
2019-03-02T07:45:58.644Z,6.41
2019-03-02T07:48:33.052Z,6.46
2019-03-02T07:51:05.172Z,6.51
2019-03-02T07:53:38.026Z,6.47
2019-03-02T07:56:09.862Z,6.51
2019-03-02T07:58:41.762Z,6.52
2019-03-02T08:01:16.648Z,6.59
2019-03-02T08:03:49.615Z,6.65
2019-03-02T08:06:21.848Z,6.66
2019-03-02T08:08:55.099Z,6.67
2019-03-02T08:11:27.079Z,6.77
2019-03-02T08:13:59.003Z,6.81
2019-03-02T08:16:30.910Z,6.84
2019-03-02T08:19:03.897Z,6.93
2019-03-02T08:21:36.889Z,6.93
2019-03-02T08:24:09.142Z,6.98
2019-03-02T08:26:41.016Z,7.07
2019-03-02T08:29:12.925Z,7.04
2019-03-02T08:31:45.652Z,7.07
2019-03-02T08:34:17.704Z,7.08
2019-03-02T08:36:50.389Z,7.16
2019-03-02T08:39:23.194Z,7.22
2019-03-02T08:41:55.098Z,7.21
2019-03-02T08:44:26.996Z,7.26
2019-03-02T08:46:58.901Z,7.30
2019-03-02T08:49:30.757Z,7.41
2019-03-02T08:52:02.714Z,7.33
2019-03-02T08:54:34.567Z,7.47
2019-03-02T08:57:06.449Z,7.53
2019-03-02T08:59:38.850Z,7.44
2019-03-02T09:02:10.813Z,7.33
2019-03-02T09:04:42.730Z,7.40
2019-03-02T09:07:14.762Z,7.52
2019-03-02T09:09:46.619Z,7.39
2019-03-02T09:12:21.916Z,7.33
2019-03-02T09:14:52.005Z,7.38
2019-03-02T09:17:23.914Z,7.35
2019-03-02T09:19:59.571Z,7.23
2019-03-02T09:22:29.348Z,7.38
2019-03-02T09:25:01.210Z,7.51
2019-03-02T09:27:33.130Z,7.49
2019-03-02T09:30:06.211Z,7.46
2019-03-02T09:32:38.070Z,7.54
2019-03-02T09:35:12.930Z,7.44
2019-03-02T09:37:44.821Z,7.59
2019-03-02T09:40:19.586Z,7.52
2019-03-02T09:42:51.694Z,7.53
2019-03-02T09:45:23.739Z,7.61
2019-03-02T09:47:55.607Z,7.71
2019-03-02T09:50:27.596Z,7.74
2019-03-02T09:52:59.913Z,7.72
2019-03-02T09:55:31.774Z,7.76
2019-03-02T09:58:03.638Z,7.77
2019-03-02T10:00:36.059Z,7.80
2019-03-02T10:03:08.041Z,7.78
2019-03-02T10:05:39.951Z,7.74
2019-03-02T10:08:13.261Z,7.69
2019-03-02T10:10:45.387Z,7.81
2019-03-02T10:13:17.315Z,7.90
2019-03-02T10:15:49.179Z,7.82
2019-03-02T10:18:21.066Z,7.82
2019-03-02T10:20:52.926Z,7.78
2019-03-02T10:23:24.825Z,7.89
2019-03-02T10:25:58.068Z,7.89
2019-03-02T10:28:33.813Z,7.97
2019-03-02T10:31:06.136Z,7.88
2019-03-02T10:33:37.173Z,7.95
2019-03-02T10:36:09.054Z,8.05
2019-03-02T10:38:40.876Z,8.04
2019-03-02T10:41:12.737Z,8.11
2019-03-02T10:43:45.590Z,8.25
2019-03-02T10:46:17.617Z,8.42
2019-03-02T10:48:49.468Z,8.46
2019-03-02T10:51:21.337Z,8.58
2019-03-02T10:53:55.818Z,8.72
2019-03-02T10:56:26.789Z,8.85
2019-03-02T10:58:58.644Z,8.96
2019-03-02T11:01:30.502Z,9.11
2019-03-02T11:04:10.763Z,9.25
2019-03-02T11:06:54.705Z,9.25
2019-03-02T11:09:45.411Z,9.46
2019-03-02T11:12:27.904Z,9.64
2019-03-02T11:15:10.661Z,9.84
2019-03-02T11:17:48.709Z,9.88
2019-03-02T11:20:30.245Z,9.96
2019-03-02T11:23:23.008Z,9.78
2019-03-02T11:26:08.909Z,9.80
2019-03-02T11:28:57.101Z,9.86
2019-03-02T11:31:50.836Z,10.07
2019-03-02T11:38:46.560Z,10.32
2019-03-02T11:41:40.230Z,10.62
2019-03-02T11:44:27.569Z,10.89
2019-03-02T11:47:21.382Z,10.81
2019-03-02T11:50:03.884Z,10.93
2019-03-02T11:53:15.627Z,11.19
2019-03-02T11:55:53.592Z,11.27
2019-03-02T11:58:43.093Z,11.31
2019-03-02T12:01:47.172Z,11.13
2019-03-02T12:04:40.161Z,10.80
2019-03-02T12:07:20.331Z,10.77
2019-03-02T12:10:01.000Z,10.67
2019-03-02T12:12:51.368Z,10.87
2019-03-02T12:15:49.258Z,10.97
2019-03-02T12:18:41.335Z,10.93
2019-03-02T12:21:37.993Z,10.96
2019-03-02T12:24:25.828Z,11.03
2019-03-02T12:27:08.494Z,11.03
2019-03-02T12:29:51.380Z,11.29
2019-03-02T12:32:45.842Z,11.53
2019-03-02T12:35:47.128Z,11.82
2019-03-02T12:38:49.850Z,11.93
2019-03-02T12:41:43.618Z,11.93
2019-03-02T12:44:28.982Z,11.95
2019-03-02T12:47:25.842Z,12.11
2019-03-02T12:50:07.872Z,12.31
2019-03-02T12:52:51.829Z,12.52
2019-03-02T12:55:45.699Z,12.60
2019-03-02T12:58:28.385Z,12.32
2019-03-02T13:01:22.049Z,12.22
2019-03-02T13:04:24.929Z,12.37
2019-03-02T13:07:24.558Z,12.76
2019-03-02T13:10:15.164Z,13.09
2019-03-02T13:13:09.555Z,13.34
2019-03-02T13:16:00.348Z,13.17
2019-03-02T13:18:41.604Z,12.74
2019-03-02T13:21:38.551Z,12.35
2019-03-02T13:24:27.903Z,12.71
2019-03-02T13:27:30.653Z,13.36
2019-03-02T13:30:14.606Z,13.61
2019-03-02T13:33:00.315Z,13.81
2019-03-02T13:35:37.540Z,14.32
2019-03-02T13:38:30.166Z,14.51
2019-03-02T13:41:17.415Z,14.82
2019-03-02T13:44:02.099Z,14.99
2019-03-02T13:46:40.372Z,14.54
2019-03-02T13:49:33.937Z,13.51
2019-03-02T13:52:40.346Z,13.42
2019-03-02T13:55:21.592Z,13.14
2019-03-02T13:58:02.393Z,12.75
2019-03-02T14:00:44.198Z,12.76
2019-03-02T14:03:40.093Z,12.52
2019-03-02T14:06:37.747Z,12.26
2019-03-02T14:09:28.954Z,12.08
2019-03-02T14:12:15.954Z,12.03
2019-03-02T14:15:12.369Z,11.92
2019-03-02T14:18:07.496Z,11.99
2019-03-02T14:20:49.174Z,11.87
2019-03-02T14:23:32.096Z,11.92
2019-03-02T14:26:20.831Z,11.80
2019-03-02T14:28:59.039Z,11.66
2019-03-02T14:31:37.935Z,11.52
2019-03-02T14:34:26.719Z,11.46
2019-03-02T14:37:03.730Z,11.38
2019-03-02T14:39:57.249Z,11.40
2019-03-02T14:42:51.044Z,11.42
2019-03-02T14:45:59.698Z,11.45
2019-03-02T14:48:49.493Z,11.35
2019-03-02T14:51:39.561Z,11.30
2019-03-02T14:54:30.315Z,11.50
2019-03-02T14:57:11.584Z,11.40
2019-03-02T15:00:08.563Z,11.35
2019-03-02T15:02:57.699Z,11.43
2019-03-02T15:05:39.835Z,11.33
2019-03-02T15:08:21.409Z,11.29
2019-03-02T15:11:00.420Z,11.23
2019-03-02T15:13:38.538Z,11.24
2019-03-02T15:16:32.502Z,11.26
2019-03-02T15:19:16.808Z,11.15
2019-03-02T15:22:13.804Z,10.91
2019-03-02T15:24:57.079Z,10.69
2019-03-02T15:27:43.693Z,10.50
2019-03-02T15:30:37.460Z,10.41
2019-03-02T15:33:23.580Z,10.39
2019-03-02T15:36:14.340Z,10.24
2019-03-02T15:39:17.348Z,10.14
2019-03-02T15:42:08.273Z,10.15
2019-03-02T15:44:57.645Z,10.03
2019-03-02T15:47:50.739Z,10.11
2019-03-02T15:50:39.113Z,10.12
2019-03-02T15:53:20.336Z,10.23
2019-03-02T15:55:57.520Z,10.19
2019-03-02T15:58:47.181Z,10.12
2019-03-02T16:01:35.170Z,10.07
2019-03-02T16:04:24.707Z,10.18
2019-03-02T16:07:15.459Z,10.14
2019-03-02T16:10:18.344Z,10.04
2019-03-02T16:13:21.079Z,10.14
2019-03-02T16:16:01.173Z,10.01
2019-03-02T16:18:54.974Z,10.09
2019-03-02T16:21:33.033Z,10.11
2019-03-02T16:24:29.463Z,9.97
2019-03-02T16:27:13.370Z,9.98
2019-03-02T16:30:04.750Z,9.87
2019-03-02T16:32:45.583Z,9.85
2019-03-02T16:35:48.462Z,9.77
2019-03-02T16:38:42.264Z,9.68
2019-03-02T16:41:25.499Z,9.55
2019-03-02T16:44:21.452Z,9.47
2019-03-02T16:47:20.893Z,9.36
2019-03-02T16:50:05.381Z,9.36
2019-03-02T16:53:07.889Z,9.46
2019-03-02T16:55:56.847Z,9.29
2019-03-02T16:58:53.448Z,9.27
2019-03-02T17:01:47.867Z,9.34
2019-03-02T17:04:35.776Z,9.25
2019-03-02T17:07:27.586Z,9.36
2019-03-02T17:10:20.085Z,9.32
2019-03-02T17:13:05.769Z,9.22
2019-03-02T17:15:49.191Z,9.18
2019-03-02T17:18:34.344Z,9.14
2019-03-02T17:21:30.034Z,9.37
2019-03-02T17:24:23.065Z,9.32
2019-03-02T17:27:30.113Z,9.36
2019-03-02T17:30:17.742Z,9.31
2019-03-02T17:33:23.028Z,9.33
2019-03-02T17:36:05.727Z,9.27
2019-03-02T17:39:02.260Z,9.22
2019-03-02T17:41:51.383Z,9.18
2019-03-02T17:44:46.525Z,9.25
2019-03-02T17:47:39.585Z,9.31
2019-03-02T17:50:28.564Z,9.23
2019-03-02T17:53:10.138Z,9.19
2019-03-02T17:55:56.022Z,9.26
2019-03-02T17:58:52.384Z,9.20
2019-03-02T18:01:32.294Z,9.24
2019-03-02T18:04:31.755Z,9.16
2019-03-02T18:07:29.478Z,9.20
2019-03-02T18:10:18.214Z,9.26
2019-03-02T18:13:20.573Z,9.24
2019-03-02T18:16:00.309Z,9.26
2019-03-02T18:18:31.878Z,9.23
2019-03-02T18:21:02.902Z,9.30
2019-03-02T18:23:34.179Z,9.32
2019-03-02T18:26:05.446Z,9.34
2019-03-02T18:28:36.711Z,9.36
2019-03-02T18:31:08.175Z,9.36
2019-03-02T18:33:47.722Z,9.35
2019-03-02T18:36:18.544Z,9.33
2019-03-02T18:38:50.380Z,9.39
2019-03-02T18:41:21.801Z,9.42
2019-03-02T18:43:53.456Z,9.36
2019-03-02T18:46:24.734Z,9.45
2019-03-02T18:49:20.746Z,9.54
2019-03-02T18:52:09.618Z,9.53
2019-03-02T18:54:49.089Z,9.47
2019-03-02T18:57:16.239Z,9.50
2019-03-02T18:59:48.121Z,9.46
2019-03-02T19:02:20.006Z,9.45
2019-03-02T19:04:54.647Z,9.48
2019-03-02T19:07:25.787Z,9.55
2019-03-02T19:09:57.296Z,9.57
2019-03-02T19:12:32.278Z,9.62
2019-03-02T19:15:02.172Z,9.70
2019-03-02T19:17:42.963Z,9.70
2019-03-02T19:20:14.820Z,9.75
2019-03-02T19:22:46.563Z,9.74
2019-03-02T19:25:18.134Z,9.69
2019-03-02T19:27:49.673Z,9.67
2019-03-02T19:30:21.542Z,9.75
2019-03-02T19:32:53.441Z,9.83
2019-03-02T19:35:24.819Z,9.80
2019-03-02T19:37:56.154Z,9.80
2019-03-02T19:40:29.469Z,9.73
2019-03-02T19:43:00.843Z,9.81
2019-03-02T19:45:32.180Z,9.75
2019-03-02T19:48:03.547Z,9.66
2019-03-02T19:50:35.212Z,9.80
2019-03-02T19:53:07.203Z,9.87
2019-03-02T19:55:38.839Z,9.99
2019-03-02T19:58:10.784Z,10.10
2019-03-02T20:00:42.896Z,10.13
2019-03-02T20:03:14.259Z,10.23
2019-03-02T20:05:45.639Z,10.22
2019-03-02T20:08:17.168Z,10.15
2019-03-02T20:10:48.520Z,10.15
2019-03-02T20:13:19.865Z,10.02
2019-03-02T20:15:51.262Z,9.95
2019-03-02T20:18:22.576Z,9.95
2019-03-02T20:20:53.847Z,9.87
2019-03-02T20:23:25.264Z,9.85
2019-03-02T20:25:56.596Z,9.89
2019-03-02T20:28:27.941Z,9.83
2019-03-02T20:30:59.248Z,9.94
2019-03-02T20:33:30.595Z,9.87
2019-03-02T20:36:01.882Z,9.86
2019-03-02T20:38:33.174Z,9.98
2019-03-02T20:41:04.611Z,9.95
2019-03-02T20:43:35.958Z,9.94
2019-03-02T20:46:07.366Z,9.91
2019-03-02T20:48:38.627Z,9.97
2019-03-02T20:51:09.962Z,9.96
2019-03-02T20:53:41.260Z,9.92
2019-03-02T20:56:12.595Z,9.99
2019-03-02T20:58:43.868Z,9.94
2019-03-02T21:01:15.222Z,10.00
2019-03-02T21:03:46.531Z,10.03
2019-03-02T21:06:17.828Z,9.94
2019-03-02T21:08:49.360Z,10.00
2019-03-02T21:11:20.599Z,9.95
2019-03-02T21:13:52.100Z,9.98
2019-03-02T21:16:23.410Z,10.00
2019-03-02T21:18:54.742Z,10.01
2019-03-02T21:21:26.047Z,10.02
2019-03-02T21:23:58.175Z,10.09
2019-03-02T21:26:29.525Z,10.06
2019-03-02T21:29:00.881Z,10.03
2019-03-02T21:31:33.071Z,9.99
2019-03-02T21:34:04.479Z,9.96
2019-03-02T21:36:35.846Z,10.03
2019-03-02T21:39:08.714Z,10.03
2019-03-02T21:41:40.087Z,10.00
2019-03-02T21:44:11.457Z,10.06
2019-03-02T21:46:42.791Z,10.03
2019-03-02T21:49:14.291Z,10.05
2019-03-02T21:51:45.613Z,10.06
2019-03-02T21:54:16.932Z,10.04
2019-03-02T21:56:48.282Z,9.98
2019-03-02T21:59:19.602Z,10.01
2019-03-02T22:01:50.923Z,10.00
2019-03-02T22:04:22.255Z,9.89
2019-03-02T22:06:53.513Z,9.91
2019-03-02T22:09:24.840Z,9.82
2019-03-02T22:11:56.160Z,9.85
2019-03-02T22:14:27.500Z,9.78
2019-03-02T22:17:00.595Z,9.78
2019-03-02T22:19:31.885Z,9.74
2019-03-02T22:22:03.128Z,9.65
2019-03-02T22:24:34.382Z,9.69
2019-03-02T22:27:08.876Z,9.70
2019-03-02T22:29:42.904Z,9.62
2019-03-02T22:32:14.154Z,9.60
2019-03-02T22:34:45.397Z,9.59
2019-03-02T22:37:16.700Z,9.57
2019-03-02T22:39:48.009Z,9.58
2019-03-02T22:42:19.270Z,9.57
2019-03-02T22:44:50.606Z,9.70
2019-03-02T22:47:22.971Z,9.68
2019-03-02T22:49:54.569Z,9.69
2019-03-02T22:52:25.797Z,9.67
2019-03-02T22:54:57.079Z,9.80
2019-03-02T22:57:28.328Z,9.73
2019-03-02T23:01:01.749Z,9.77
2019-03-02T23:03:30.565Z,9.76
2019-03-02T23:06:02.042Z,9.71
2019-03-02T23:08:33.324Z,9.86
2019-03-02T23:11:04.654Z,9.72
2019-03-02T23:13:35.938Z,9.77
2019-03-02T23:16:07.271Z,9.85
2019-03-02T23:18:38.558Z,9.83
2019-03-02T23:21:09.863Z,9.82
2019-03-02T23:23:41.123Z,9.88
2019-03-02T23:26:12.456Z,9.89
2019-03-02T23:28:43.725Z,9.90
2019-03-02T23:31:15.559Z,9.91
2019-03-02T23:33:46.867Z,9.95
2019-03-02T23:36:18.174Z,9.97
2019-03-02T23:38:49.436Z,10.03
2019-03-02T23:41:20.821Z,10.11
2019-03-02T23:47:54.160Z,10.09
2019-03-02T23:50:25.403Z,10.03
2019-03-02T23:52:56.655Z,9.99
2019-03-02T23:55:27.919Z,10.02
2019-03-02T23:57:59.240Z,9.93
